Time;durP1;ratioP1;P1;durP2;ratioP2;P2;SDS_P1;SDS_P2;PMS_P1;PMS_P2;Temp;Humidity;BMP_temperature;BMP_pressure;BME280_temperature;BME280_humidity;BME280_pressure;Samples;Min_cycle;Max_cycle;Signal;HPM_P1;HPM_P2
2023/09/08 00:00:06;;;;;;;2.58;1.17;;;;;;;13.62;68.62;99830.88;5075832;28;20047;-41
2023/09/08 00:02:33;;;;;;;3.05;1.00;;;;;;;13.57;68.31;99820.63;5070454;28;20059;-40
2023/09/08 00:04:59;;;;;;;2.00;1.20;;;;;;;13.57;67.88;99828.47;5062904;28;20092;-41
2023/09/08 00:07:24;;;;;;;2.38;1.10;;;;;;;13.60;67.66;99834.47;5060741;28;20039;-42
2023/09/08 00:09:50;;;;;;;3.15;1.10;;;;;;;13.42;67.44;99786.50;5072228;28;20085;-42
2023/09/08 00:12:16;;;;;;;2.80;1.13;;;;;;;13.61;67.35;99831.78;5065121;28;20040;-40
2023/09/08 00:14:42;;;;;;;3.70;1.15;;;;;;;13.63;67.54;99821.28;5069433;28;20047;-42
2023/09/08 00:17:08;;;;;;;3.30;1.20;;;;;;;13.57;67.25;99817.16;5071482;28;20102;-40
2023/09/08 00:19:34;;;;;;;6.68;1.05;;;;;;;13.46;67.17;99799.34;5072842;28;20039;-41
2023/09/08 00:22:00;;;;;;;2.30;1.20;;;;;;;13.62;67.29;99822.19;5074577;28;20143;-43
2023/09/08 00:24:26;;;;;;;5.00;1.00;;;;;;;13.65;67.25;99825.53;5068914;28;20124;-42
2023/09/08 00:26:52;;;;;;;1.35;0.90;;;;;;;13.66;67.22;99824.59;5069170;28;20044;-40
2023/09/08 00:29:18;;;;;;;1.67;1.13;;;;;;;13.66;66.82;99819.34;5071486;28;20051;-40
2023/09/08 00:31:44;;;;;;;1.58;0.90;;;;;;;13.66;66.59;99821.97;5072765;28;20469;-42
2023/09/08 00:34:09;;;;;;;1.55;1.00;;;;;;;13.51;66.81;99793.91;5051652;28;20127;-42
2023/09/08 00:36:36;;;;;;;1.48;0.90;;;;;;;13.68;66.92;99812.31;5069326;28;20079;-41
2023/09/08 00:39:02;;;;;;;3.67;1.15;;;;;;;13.66;66.76;99821.16;5069013;28;20509;-40
2023/09/08 00:41:28;;;;;;;1.65;1.00;;;;;;;13.66;66.63;99814.13;5073938;28;20545;-42
2023/09/08 00:43:53;;;;;;;1.42;0.90;;;;;;;13.67;66.53;99814.97;5072352;28;20043;-41
2023/09/08 00:46:20;;;;;;;3.03;1.10;;;;;;;13.66;66.31;99813.31;5073657;28;20051;-40
2023/09/08 00:48:46;;;;;;;1.40;0.88;;;;;;;13.63;66.38;99805.59;5055260;28;20041;-42
2023/09/08 00:51:12;;;;;;;3.83;0.90;;;;;;;13.63;66.12;99802.97;5070264;28;20052;-44
2023/09/08 00:53:39;;;;;;;1.98;1.20;;;;;;;13.64;66.08;99802.94;5066852;28;20091;-42
2023/09/08 00:56:05;;;;;;;2.70;0.90;;;;;;;13.66;66.17;99802.88;5072011;28;20539;-42
2023/09/08 00:58:31;;;;;;;2.28;0.77;;;;;;;13.66;65.87;99800.25;5056743;28;20044;-41
2023/09/08 01:00:59;;;;;;;3.67;0.90;;;;;;;13.50;65.91;99773.97;5079032;28;20043;-41
2023/09/08 01:03:26;;;;;;;1.85;0.85;;;;;;;13.45;65.66;99774.16;5025008;28;20190;-42
2023/09/08 01:05:52;;;;;;;3.88;1.02;;;;;;;13.65;65.66;99807.25;5072527;28;20142;-41
2023/09/08 01:08:18;;;;;;;3.45;0.80;;;;;;;13.65;65.62;99796.78;5030072;28;20048;-42
2023/09/08 01:10:45;;;;;;;2.42;1.00;;;;;;;13.64;65.65;99797.69;5074134;28;20051;-41
2023/09/08 01:13:11;;;;;;;3.42;0.82;;;;;;;13.64;65.62;99802.94;5070203;28;20089;-40
2023/09/08 01:15:37;;;;;;;4.30;0.88;;;;;;;13.63;65.70;99800.38;5069209;28;20048;-40
2023/09/08 01:18:03;;;;;;;2.00;0.93;;;;;;;13.63;65.64;99801.22;5073789;28;20043;-40
2023/09/08 01:21:03;;;;;;;1.98;1.00;;;;;;;13.62;65.54;99802.13;5068518;28;20733;-41
2023/09/08 01:23:43;;;;;;;2.40;1.00;;;;;;;13.60;65.50;99796.16;5062689;28;20037;-40
2023/09/08 01:26:14;;;;;;;2.45;0.80;;;;;;;13.59;65.83;99799.66;5073267;28;20071;-41
2023/09/08 01:28:41;;;;;;;2.03;0.90;;;;;;;13.60;65.79;99798.75;5052440;28;20085;-40
2023/09/08 01:31:07;;;;;;;3.70;0.95;;;;;;;13.60;65.28;99796.16;5072916;28;20563;-40
2023/09/08 01:33:33;;;;;;;3.85;1.10;;;;;;;13.31;65.47;99766.09;5068340;28;20048;-41
2023/09/08 01:35:59;;;;;;;2.55;1.08;;;;;;;13.45;65.79;99792.44;5070580;28;20114;-41
2023/09/08 01:38:25;;;;;;;1.23;0.85;;;;;;;13.44;66.32;99795.13;5065552;28;20526;-42
2023/09/08 01:40:53;;;;;;;2.63;0.98;;;;;;;13.41;66.91;99788.25;5053450;28;20404;-41
2023/09/08 01:43:18;;;;;;;3.17;0.98;;;;;;;13.36;67.36;99785.00;5071227;28;20051;-42
2023/09/08 01:45:45;;;;;;;3.92;1.20;;;;;;;13.21;67.96;99782.22;5069514;28;20076;-42
2023/09/08 01:48:11;;;;;;;3.40;1.42;;;;;;;13.17;68.65;99773.69;5074063;28;20680;-42
2023/09/08 01:50:37;;;;;;;3.40;1.23;;;;;;;13.07;69.18;99778.44;5067160;28;20131;-42
2023/09/08 01:53:03;;;;;;;2.33;0.85;;;;;;;13.03;69.93;99771.63;5072914;28;20043;-43
2023/09/08 01:55:29;;;;;;;2.42;0.93;;;;;;;13.00;71.05;99782.19;5056948;28;20050;-41
2023/09/08 01:57:57;;;;;;;2.17;1.02;;;;;;;12.99;71.93;99772.66;5058602;28;20089;-41
2023/09/08 02:00:23;;;;;;;1.85;0.80;;;;;;;13.00;72.44;99771.75;5073801;28;20617;-40
2023/09/08 02:02:50;;;;;;;4.75;1.15;;;;;;;12.94;73.15;99752.91;5070493;28;20036;-42
2023/09/08 02:05:17;;;;;;;6.68;1.20;;;;;;;13.01;73.58;99770.00;5056941;28;20048;-41
2023/09/08 02:07:43;;;;;;;1.20;0.90;;;;;;;12.97;74.21;99758.00;5060354;28;20147;-41
2023/09/08 02:10:10;;;;;;;2.78;1.20;;;;;;;12.94;74.32;99750.28;5063630;28;20131;-40
2023/09/08 02:12:37;;;;;;;2.65;1.00;;;;;;;12.91;75.03;99756.50;5077084;28;20036;-41
2023/09/08 02:15:05;;;;;;;3.35;1.10;;;;;;;12.73;75.34;99729.41;5064601;28;20127;-41
2023/09/08 02:17:34;;;;;;;1.45;0.88;;;;;;;12.89;75.66;99757.47;5076961;28;20039;-42
2023/09/08 02:20:00;;;;;;;2.75;1.17;;;;;;;12.87;75.60;99754.94;5066452;28;20044;-41
2023/09/08 02:22:26;;;;;;;1.40;0.98;;;;;;;12.87;75.69;99746.25;5060246;28;20133;-41
2023/09/08 02:24:52;;;;;;;1.55;1.10;;;;;;;12.69;75.96;99717.44;5062055;28;20145;-41
2023/09/08 02:27:19;;;;;;;1.70;1.00;;;;;;;12.88;75.87;99745.31;5065629;28;20043;-41
2023/09/08 02:29:48;;;;;;;4.95;1.20;;;;;;;12.90;75.81;99738.28;5056686;28;20291;-41
2023/09/08 02:32:14;;;;;;;1.65;0.95;;;;;;;12.89;75.59;99731.38;5075792;28;20036;-41
2023/09/08 02:34:42;;;;;;;4.60;1.10;;;;;;;12.91;76.08;99732.16;5070767;28;20078;-40
2023/09/08 02:37:09;;;;;;;1.98;1.05;;;;;;;12.92;75.79;99729.50;5050507;28;20074;-42
2023/09/08 02:39:35;;;;;;;2.22;1.05;;;;;;;12.91;76.26;99727.78;5071186;28;20052;-40
2023/09/08 02:42:02;;;;;;;2.58;1.10;;;;;;;12.92;76.50;99726.03;5065576;28;20048;-40
2023/09/08 02:44:29;;;;;;;2.88;1.50;;;;;;;12.91;76.31;99725.19;5091105;28;20063;-41
2023/09/08 02:46:56;;;;;;;1.60;1.25;;;;;;;12.93;76.46;99720.72;5072610;28;20032;-41
2023/09/08 02:49:22;;;;;;;2.95;1.10;;;;;;;12.93;76.36;99728.56;5053153;28;20044;-42
2023/09/08 02:51:48;;;;;;;1.70;1.15;;;;;;;12.94;76.41;99729.41;5076374;28;20040;-41
2023/09/08 02:54:14;;;;;;;2.45;1.25;;;;;;;12.94;76.37;99722.44;5072858;28;20036;-42
2023/09/08 02:56:40;;;;;;;2.42;1.15;;;;;;;12.94;76.52;99726.81;5065137;28;20072;-41
2023/09/08 02:59:05;;;;;;;4.00;1.10;;;;;;;12.93;76.64;99727.72;5059821;28;20044;-41
2023/09/08 03:01:31;;;;;;;3.40;1.02;;;;;;;12.94;76.66;99726.81;5050918;28;20033;-41
2023/09/08 03:03:57;;;;;;;8.10;1.30;;;;;;;12.93;76.86;99719.88;5050436;28;20052;-41
2023/09/08 03:06:24;;;;;;;3.83;1.20;;;;;;;12.93;77.33;99722.50;5059305;28;20473;-46
2023/09/08 03:08:50;;;;;;;3.72;1.20;;;;;;;12.94;77.37;99725.03;5075928;28;20056;-40
2023/09/08 03:11:16;;;;;;;2.55;1.00;;;;;;;12.77;77.31;99693.59;5077425;28;20105;-41
2023/09/08 03:13:42;;;;;;;7.38;1.40;;;;;;;12.96;77.42;99719.75;5059297;28;20036;-39
2023/09/08 03:16:10;;;;;;;7.68;3.47;;;;;;;12.99;77.31;99714.41;5067023;28;20040;-41
2023/09/08 03:18:37;;;;;;;5.53;1.10;;;;;;;12.80;77.23;99674.38;5049772;28;20136;-41
2023/09/08 03:21:09;;;;;;;2.08;1.08;;;;;;;13.01;77.49;99708.22;5061386;28;20147;-41
2023/09/08 03:23:37;;;;;;;2.55;1.23;;;;;;;13.03;77.67;99710.78;5061106;28;20043;-40
2023/09/08 03:26:03;;;;;;;1.92;1.00;;;;;;;12.96;77.42;99693.66;5063375;28;20041;-42
2023/09/08 03:28:29;;;;;;;2.00;1.05;;;;;;;12.86;77.20;99684.56;5063575;28;20059;-41
2023/09/08 03:30:55;;;;;;;3.33;1.48;;;;;;;13.05;77.05;99709.78;5064217;28;20705;-40
2023/09/08 03:33:21;;;;;;;1.73;1.10;;;;;;;13.04;77.02;99705.47;5070819;28;20135;-41
2023/09/08 03:35:47;;;;;;;4.28;1.05;;;;;;;13.05;76.95;99696.72;5046851;28;20040;-40
2023/09/08 03:38:13;;;;;;;1.83;0.98;;;;;;;13.03;76.51;99702.94;5065971;28;20147;-42
2023/09/08 03:40:39;;;;;;;3.28;1.20;;;;;;;13.05;76.25;99701.94;5064939;28;20064;-42
2023/09/08 03:43:05;;;;;;;3.38;1.08;;;;;;;13.11;76.05;99706.94;5063968;28;20029;-40
2023/09/08 03:45:31;;;;;;;2.05;1.00;;;;;;;13.19;75.87;99698.72;5054206;28;20094;-42
2023/09/08 03:47:56;;;;;;;2.35;1.10;;;;;;;13.26;75.67;99701.94;5060995;28;20623;-40
2023/09/08 03:50:22;;;;;;;1.73;1.00;;;;;;;13.33;75.54;99693.75;5070852;28;20058;-41
2023/09/08 03:52:48;;;;;;;1.75;1.00;;;;;;;13.28;75.27;99679.22;5074955;28;20044;-42
2023/09/08 03:55:14;;;;;;;2.70;0.85;;;;;;;13.48;75.22;99697.44;5060336;28;20048;-42
2023/09/08 03:57:40;;;;;;;1.80;1.10;;;;;;;13.50;74.75;99693.81;5071782;28;20119;-43
2023/09/08 04:00:07;;;;;;;1.90;0.93;;;;;;;13.57;74.21;99697.00;5073682;28;20559;-44
2023/09/08 04:02:40;;;;;;;2.47;0.80;;;;;;;13.54;73.49;99695.41;5082405;28;20424;-47
2023/09/08 04:05:07;;;;;;;2.05;1.00;;;;;;;13.57;72.99;99700.47;5065914;28;20064;-44
2023/09/08 04:07:32;;;;;;;6.05;1.80;;;;;;;13.62;73.09;99691.56;5070604;28;20499;-43
2023/09/08 04:09:58;;;;;;;2.80;0.95;;;;;;;13.41;72.53;99668.13;5055185;28;20162;-43
2023/09/08 04:12:24;;;;;;;1.20;0.80;;;;;;;13.62;71.99;99695.03;5038253;28;20086;-42
2023/09/08 04:14:51;;;;;;;2.28;1.10;;;;;;;13.65;71.54;99691.44;5050557;28;20044;-44
2023/09/08 04:17:17;;;;;;;2.15;1.10;;;;;;;13.79;71.17;99686.41;5062949;28;20131;-43
2023/09/08 04:19:43;;;;;;;2.65;1.05;;;;;;;13.73;70.48;99658.78;5060419;28;20509;-43
2023/09/08 04:22:08;;;;;;;1.90;1.02;;;;;;;14.00;70.05;99691.44;5073151;28;20044;-42
2023/09/08 04:24:36;;;;;;;4.65;1.67;;;;;;;14.06;69.70;99690.31;5075282;28;20048;-43
2023/09/08 04:27:02;;;;;;;1.67;1.33;;;;;;;14.15;69.48;99684.63;5065991;28;20519;-43
2023/09/08 04:29:28;;;;;;;9.30;2.15;;;;;;;14.22;68.78;99679.94;5050275;28;20048;-41
2023/09/08 04:31:54;;;;;;;4.78;1.48;;;;;;;14.22;68.33;99682.56;5089976;28;20585;-44
2023/09/08 04:34:20;;;;;;;3.03;1.10;;;;;;;14.33;67.84;99678.50;5063527;28;20476;-43
2023/09/08 04:36:46;;;;;;;2.40;0.70;;;;;;;14.40;67.46;99672.06;5061183;28;20405;-43
2023/09/08 04:39:12;;;;;;;3.17;1.08;;;;;;;14.32;66.84;99670.72;5072335;28;20431;-43
2023/09/08 04:41:38;;;;;;;1.55;1.05;;;;;;;14.47;66.95;99675.22;5062042;28;20043;-43
2023/09/08 04:44:04;;;;;;;3.33;1.15;;;;;;;14.56;66.59;99660.81;5070886;28;20049;-44
2023/09/08 04:46:30;;;;;;;2.85;1.20;;;;;;;14.25;66.30;99623.09;5060291;28;20067;-41
2023/09/08 04:48:56;;;;;;;5.07;1.60;;;;;;;14.54;65.83;99673.16;5070115;28;20044;-41
2023/09/08 04:51:23;;;;;;;2.05;1.20;;;;;;;14.47;65.61;99671.75;5064071;28;20072;-46
2023/09/08 04:53:49;;;;;;;2.55;1.42;;;;;;;14.36;65.27;99669.66;5054443;28;20048;-44
2023/09/08 04:56:16;;;;;;;3.35;1.42;;;;;;;14.23;65.13;99661.59;5052734;28;20758;-44
2023/09/08 04:58:42;;;;;;;3.13;1.20;;;;;;;14.11;65.31;99628.19;5049764;28;20071;-42
2023/09/08 05:01:08;;;;;;;2.38;1.35;;;;;;;14.28;65.28;99664.81;5071066;28;20044;-43
2023/09/08 05:03:34;;;;;;;2.25;1.10;;;;;;;14.39;65.15;99661.69;5058298;28;20105;-43
2023/09/08 05:06:01;;;;;;;4.22;1.30;;;;;;;14.62;64.91;99655.28;5068890;28;20095;-41
2023/09/08 05:08:27;;;;;;;3.25;0.98;;;;;;;14.84;64.50;99642.78;5065516;28;20036;-48
2023/09/08 05:10:54;;;;;;;2.20;1.20;;;;;;;15.03;63.86;99643.50;5066363;28;20453;-44
2023/09/08 05:13:22;;;;;;;1.25;0.90;;;;;;;14.97;62.77;99603.72;5064792;28;20070;-43
2023/09/08 05:15:48;;;;;;;2.33;1.52;;;;;;;15.38;62.78;99643.38;5076380;28;20055;-43
2023/09/08 05:18:15;;;;;;;2.65;0.90;;;;;;;15.39;61.58;99637.19;5076516;28;20131;-41
2023/09/08 05:20:41;;;;;;;2.45;0.93;;;;;;;15.23;61.34;99638.03;5044875;28;20530;-43
2023/09/08 05:23:07;;;;;;;2.83;1.10;;;;;;;14.86;61.10;99587.75;5063385;28;20037;-44
2023/09/08 05:25:32;;;;;;;6.65;1.77;;;;;;;15.15;60.87;99636.75;5073870;28;20507;-42
2023/09/08 05:28:00;;;;;;;1.92;1.02;;;;;;;15.22;60.99;99635.50;5053541;28;20055;-43
2023/09/08 05:30:26;;;;;;;7.03;1.02;;;;;;;15.18;60.74;99633.97;5065831;28;20036;-45
2023/09/08 05:32:53;;;;;;;2.10;1.42;;;;;;;15.21;60.65;99620.72;5052078;28;20428;-47
2023/09/08 05:35:19;;;;;;;3.60;1.27;;;;;;;15.43;60.53;99628.25;5059475;28;20143;-43
2023/09/08 05:37:46;;;;;;;2.47;1.10;;;;;;;15.58;60.29;99622.19;5044454;28;20036;-44
2023/09/08 05:40:12;;;;;;;2.33;1.17;;;;;;;15.77;59.24;99614.13;5067413;28;20086;-43
2023/09/08 05:42:37;;;;;;;5.53;1.58;;;;;;;15.76;58.57;99613.28;5049565;28;20752;-43
2023/09/08 05:45:04;;;;;;;2.80;1.40;;;;;;;15.64;58.51;99619.25;5063601;28;20267;-43
2023/09/08 05:47:30;;;;;;;2.83;0.98;;;;;;;15.72;58.26;99624.03;5029160;28;20602;-47
2023/09/08 05:49:57;;;;;;;1.52;0.77;;;;;;;15.80;58.03;99614.81;5066191;28;20581;-44
2023/09/08 05:52:23;;;;;;;2.03;0.65;;;;;;;15.91;57.87;99614.22;5061871;28;20089;-43
2023/09/08 05:54:50;;;;;;;7.25;2.22;;;;;;;16.02;58.02;99619.66;5070350;28;20101;-44
2023/09/08 05:57:16;;;;;;;3.13;0.85;;;;;;;16.35;56.80;99604.59;5072193;28;20044;-42
2023/09/08 05:59:42;;;;;;;1.77;1.02;;;;;;;16.33;56.52;99595.94;5063228;28;20106;-43
2023/09/08 06:02:07;;;;;;;2.95;1.20;;;;;;;16.39;56.20;99592.97;5057331;28;20131;-43
2023/09/08 06:04:33;;;;;;;1.60;0.98;;;;;;;16.20;55.89;99584.50;5041636;28;20075;-43
2023/09/08 06:07:01;;;;;;;4.75;1.00;;;;;;;16.38;56.01;99599.16;5056802;28;20041;-44
2023/09/08 06:09:27;;;;;;;2.70;0.85;;;;;;;16.67;55.21;99594.81;5075352;28;20064;-42
2023/09/08 06:11:53;;;;;;;2.08;0.70;;;;;;;17.29;54.32;99580.41;5085606;28;20075;-41
2023/09/08 06:14:19;;;;;;;1.42;0.77;;;;;;;17.93;52.93;99583.31;5072490;28;20162;-44
2023/09/08 06:16:47;;;;;;;4.15;1.30;;;;;;;17.84;52.48;99558.47;5070392;28;20036;-42
2023/09/08 06:19:14;;;;;;;1.85;0.90;;;;;;;17.80;52.35;99567.50;5065108;28;20044;-43
2023/09/08 06:21:39;;;;;;;2.38;0.80;;;;;;;17.45;52.05;99559.25;5053390;28;20666;-40
2023/09/08 06:24:06;;;;;;;1.60;0.90;;;;;;;17.40;52.33;99582.34;5073453;28;20642;-41
2023/09/08 06:26:33;;;;;;;4.93;1.23;;;;;;;17.30;52.70;99584.75;5079309;28;20047;-42
2023/09/08 06:29:00;;;;;;;4.45;1.80;;;;;;;17.33;52.58;99586.31;5031060;28;20032;-41
2023/09/08 06:31:27;;;;;;;1.33;0.90;;;;;;;17.46;52.28;99579.34;5055443;28;20136;-44
2023/09/08 06:33:53;;;;;;;4.13;1.00;;;;;;;17.56;51.81;99575.19;5069046;28;20052;-41
2023/09/08 06:36:19;;;;;;;2.10;1.08;;;;;;;17.54;51.67;99574.44;5062861;28;20106;-44
2023/09/08 06:38:46;;;;;;;2.75;1.10;;;;;;;17.39;51.65;99567.53;5066955;28;20032;-42
2023/09/08 06:41:13;;;;;;;1.95;0.98;;;;;;;17.27;51.50;99563.06;5077824;28;20044;-41
2023/09/08 06:43:40;;;;;;;3.42;1.05;;;;;;;17.12;51.81;99556.13;5067217;28;20052;-43
2023/09/08 06:46:13;;;;;;;5.93;1.10;;;;;;;16.99;52.12;99542.09;5065825;28;20050;-42
2023/09/08 06:48:39;;;;;;;3.33;2.03;;;;;;;16.91;52.32;99546.03;5066722;28;20044;-43
2023/09/08 06:51:05;;;;;;;4.90;1.25;;;;;;;17.17;51.76;99544.41;5052711;28;20037;-45
2023/09/08 06:53:32;;;;;;;1.17;0.90;;;;;;;18.10;50.80;99549.69;5075198;28;20602;-44
2023/09/08 06:56:02;;;;;;;3.30;0.80;;;;;;;19.00;48.83;99507.41;5053823;28;20044;-46
2023/09/08 06:58:29;;;;;;;13.63;1.63;;;;;;;19.46;48.01;99538.41;5043396;28;20130;-46
2023/09/08 07:00:55;;;;;;;5.13;1.30;;;;;;;19.52;47.54;99537.09;5067666;28;20048;-46
2023/09/08 07:03:22;;;;;;;3.15;1.40;;;;;;;19.86;46.74;99542.41;5055726;28;20135;-46
2023/09/08 07:05:50;;;;;;;3.80;1.20;;;;;;;19.48;46.31;99535.63;5021473;28;20264;-44
2023/09/08 07:08:17;;;;;;;5.70;1.15;;;;;;;19.61;46.04;99500.34;5048771;28;20040;-45
2023/09/08 07:10:44;;;;;;;5.25;1.85;;;;;;;22.43;42.50;99531.47;5075952;28;20040;-46
2023/09/08 07:13:10;;;;;;;2.95;0.93;;;;;;;22.33;41.74;99524.31;5066864;28;20047;-44
2023/09/08 07:15:37;;;;;;;2.45;1.85;;;;;;;22.97;40.11;99508.16;5072114;28;20428;-47
2023/09/08 07:18:03;;;;;;;2.15;1.00;;;;;;;22.86;39.56;99512.72;5073056;28;20040;-50
2023/09/08 07:20:30;;;;;;;4.13;1.55;;;;;;;22.18;40.04;99508.88;5075939;28;20040;-49
2023/09/08 07:22:56;;;;;;;5.30;1.25;;;;;;;21.85;40.29;99515.16;5058554;28;20173;-46
2023/09/08 07:25:22;;;;;;;5.95;1.38;;;;;;;21.56;41.00;99499.88;5073556;28;20135;-49
2023/09/08 07:27:52;;;;;;;6.10;1.00;;;;;;;21.55;40.99;99494.75;5073291;28;20105;-47
2023/09/08 07:30:19;;;;;;;2.20;1.00;;;;;;;21.87;40.70;99500.00;5075129;28;20959;-45
2023/09/08 07:32:45;;;;;;;3.15;1.00;;;;;;;23.73;38.49;99503.94;5054079;28;20048;-45
2023/09/08 07:35:14;;;;;;;3.72;0.80;;;;;;;25.65;35.52;99503.19;5073468;28;20463;-47
2023/09/08 07:37:41;;;;;;;1.00;0.70;;;;;;;25.15;34.68;99496.66;5067064;28;20040;-45
2023/09/08 07:40:09;;;;;;;1.60;0.77;;;;;;;23.97;35.68;99490.22;5056824;28;20043;-46
2023/09/08 07:42:36;;;;;;;1.17;0.80;;;;;;;23.08;36.98;99484.16;5029264;28;20455;-43
2023/09/08 07:45:02;;;;;;;1.40;0.70;;;;;;;22.71;37.72;99483.09;5073413;28;20134;-43
2023/09/08 07:47:32;;;;;;;2.25;0.93;;;;;;;22.18;38.12;99463.88;5075480;28;20521;-42
2023/09/08 07:50:20;;;;;;;2.80;0.95;;;;;;;21.81;38.62;99474.06;5075494;28;20159;-45
2023/09/08 07:52:48;;;;;;;3.95;0.95;;;;;;;21.67;39.00;99475.19;5072064;28;20287;-44
2023/09/08 07:55:14;;;;;;;2.92;1.00;;;;;;;21.86;39.03;99470.06;5073148;28;20059;-45
2023/09/08 07:57:42;;;;;;;1.30;0.90;;;;;;;21.55;38.59;99447.97;5071407;28;20044;-43
2023/09/08 08:00:10;;;;;;;3.40;1.20;;;;;;;21.89;38.65;99469.78;5074239;28;20117;-46
2023/09/08 08:02:41;;;;;;;2.67;0.80;;;;;;;22.09;38.37;99456.69;5072867;28;20518;-44
2023/09/08 08:05:08;;;;;;;7.05;0.93;;;;;;;22.61;36.92;99461.00;5072833;28;20537;-47
2023/09/08 08:07:33;;;;;;;6.60;1.70;;;;;;;23.05;36.66;99459.72;5074349;28;20153;-46
2023/09/08 08:09:59;;;;;;;3.20;1.02;;;;;;;23.07;36.87;99449.81;5054682;28;20115;-50
2023/09/08 08:12:25;;;;;;;4.97;1.00;;;;;;;22.58;36.97;99451.47;5066721;28;20044;-45
2023/09/08 08:14:51;;;;;;;6.13;1.10;;;;;;;21.96;38.17;99436.56;5068875;28;20048;-44
2023/09/08 08:17:19;;;;;;;13.75;1.80;;;;;;;22.22;38.47;99433.50;5075223;28;20044;-46
2023/09/08 08:19:45;;;;;;;2.58;1.30;;;;;;;23.86;36.31;99430.16;5075990;28;20123;-46
2023/09/08 08:22:11;;;;;;;6.07;2.13;;;;;;;24.08;35.88;99431.59;5071807;28;20091;-45
2023/09/08 08:24:37;;;;;;;3.33;1.52;;;;;;;23.66;36.31;99430.31;5065450;28;20040;-45
2023/09/08 08:27:03;;;;;;;1.75;0.98;;;;;;;23.03;36.60;99412.13;5064826;28;20044;-47
2023/09/08 08:29:29;;;;;;;3.63;1.13;;;;;;;22.58;37.63;99413.53;5070714;28;20119;-41
2023/09/08 08:31:55;;;;;;;5.97;0.90;;;;;;;22.63;37.77;99419.28;5072874;28;20098;-44
2023/09/08 08:34:21;;;;;;;1.67;0.95;;;;;;;22.95;37.43;99413.78;5065362;28;20036;-44
2023/09/08 08:36:47;;;;;;;2.80;1.63;;;;;;;23.19;36.95;99412.41;5071668;28;20044;-46
2023/09/08 08:39:13;;;;;;;2.15;0.90;;;;;;;23.31;36.36;99417.59;5051200;28;20214;-45
2023/09/08 08:41:40;;;;;;;4.60;1.88;;;;;;;23.41;36.31;99398.03;5054772;28;20731;-49
2023/09/08 08:44:07;;;;;;;2.63;1.25;;;;;;;24.02;35.70;99410.97;5067262;28;20054;-45
2023/09/08 08:46:34;;;;;;;6.55;1.80;;;;;;;23.61;36.11;99402.38;5072354;28;20047;-45
2023/09/08 08:49:01;;;;;;;3.22;1.00;;;;;;;22.96;36.89;99399.56;5071669;28;20072;-46
2023/09/08 08:51:29;;;;;;;3.05;1.30;;;;;;;22.04;38.08;99353.81;5074868;28;20032;-49
2023/09/08 08:53:55;;;;;;;4.93;1.02;;;;;;;21.68;39.18;99389.53;5070736;28;20064;-46
2023/09/08 08:56:22;;;;;;;5.50;1.42;;;;;;;21.35;40.10;99376.53;5072691;28;20055;-44
2023/09/08 08:58:49;;;;;;;1.52;0.70;;;;;;;21.11;40.47;99379.34;5072609;28;20045;-45
2023/09/08 09:01:17;;;;;;;5.90;0.95;;;;;;;20.77;41.39;99383.94;5078285;28;20131;-45
2023/09/08 09:03:43;;;;;;;5.90;1.02;;;;;;;20.66;41.65;99381.31;5078727;28;20044;-45
2023/09/08 09:06:10;;;;;;;4.28;1.08;;;;;;;20.66;42.04;99368.09;5076397;28;20055;-42
2023/09/08 09:08:37;;;;;;;5.70;1.30;;;;;;;20.64;42.28;99364.72;5077989;28;20036;-44
2023/09/08 09:11:03;;;;;;;2.22;0.93;;;;;;;20.73;42.21;99363.97;5074589;28;20062;-43
2023/09/08 09:13:29;;;;;;;5.00;0.95;;;;;;;20.85;42.20;99360.34;5068559;28;20611;-42
2023/09/08 09:15:59;;;;;;;4.78;1.00;;;;;;;21.04;42.14;99380.84;5071224;28;20044;-48
2023/09/08 09:18:29;;;;;;;2.72;1.20;;;;;;;21.21;41.97;99364.44;5067921;28;20508;-47
2023/09/08 09:20:58;;;;;;;4.38;1.13;;;;;;;21.51;41.50;99363.69;5076701;28;20049;-43
2023/09/08 09:23:29;;;;;;;3.42;1.30;;;;;;;21.42;41.36;99364.44;5066836;28;20564;-47
2023/09/08 09:25:54;;;;;;;1.98;1.10;;;;;;;21.05;41.76;99346.34;5080613;28;20071;-50
2023/09/08 09:28:20;;;;;;;6.00;1.30;;;;;;;20.85;42.27;99364.78;5063521;28;20562;-46
2023/09/08 09:30:49;;;;;;;3.25;1.10;;;;;;;20.70;42.77;99359.81;5072421;28;20155;-44
2023/09/08 09:33:16;;;;;;;3.25;0.90;;;;;;;20.53;42.97;99348.91;5060278;28;20344;-41
2023/09/08 09:35:50;;;;;;;3.10;0.93;;;;;;;20.66;43.15;99365.47;5071340;28;20036;-41
2023/09/08 09:38:18;;;;;;;4.05;1.33;;;;;;;21.17;42.45;99370.97;5069359;28;20051;-44
2023/09/08 09:40:45;;;;;;;4.65;1.35;;;;;;;21.33;41.58;99314.97;5063623;28;20040;-42
2023/09/08 09:43:11;;;;;;;4.80;1.88;;;;;;;21.17;42.04;99312.78;5067437;28;20033;-43
2023/09/08 09:45:38;;;;;;;4.05;1.00;;;;;;;21.06;42.19;99332.16;5060740;28;20524;-52
2023/09/08 09:48:05;;;;;;;5.13;1.92;;;;;;;20.84;42.55;99357.81;5079513;28;20052;-47
2023/09/08 09:50:33;;;;;;;8.55;1.23;;;;;;;20.36;43.37;99362.66;5066484;28;20115;-43
2023/09/08 09:53:00;;;;;;;4.13;1.02;;;;;;;20.17;44.16;99366.69;5058601;28;21770;-46
2023/09/08 09:55:27;;;;;;;3.75;2.00;;;;;;;20.12;44.33;99357.47;5077780;28;20075;-42
2023/09/08 09:57:58;;;;;;;4.97;0.98;;;;;;;19.95;45.12;99355.28;5065753;28;20099;-43
2023/09/08 10:00:28;;;;;;;4.97;1.23;;;;;;;19.60;45.94;99358.88;5076856;28;20037;-45
2023/09/08 10:02:55;;;;;;;3.45;0.80;;;;;;;19.22;46.94;99355.63;5069173;28;20044;-42
2023/09/08 10:05:21;;;;;;;8.10;1.50;;;;;;;18.84;48.31;99376.91;5075204;28;20464;-43
2023/09/08 10:07:51;;;;;;;3.10;1.00;;;;;;;18.48;50.11;99368.03;5076883;28;20093;-42
2023/09/08 10:10:17;;;;;;;4.35;1.27;;;;;;;18.13;52.01;99364.44;5065631;28;20039;-47
2023/09/08 10:12:47;;;;;;;3.45;0.77;;;;;;;17.86;53.20;99364.59;5063300;28;20078;-43
2023/09/08 10:15:17;;;;;;;4.63;1.10;;;;;;;17.65;54.72;99369.53;5067965;28;20074;-44
2023/09/08 10:17:44;;;;;;;1.70;0.90;;;;;;;17.47;55.77;99372.53;5068564;28;20072;-43
2023/09/08 10:20:15;;;;;;;2.60;1.35;;;;;;;17.33;56.66;99373.44;5066295;28;20382;-43
2023/09/08 10:22:42;;;;;;;8.73;5.70;;;;;;;17.13;57.68;99355.53;5058635;28;20074;-43
2023/09/08 10:25:09;;;;;;;3.20;1.40;;;;;;;17.20;58.31;99381.31;5057679;28;20607;-44
2023/09/08 10:27:36;;;;;;;4.00;1.30;;;;;;;17.09;59.74;99382.97;5066072;28;20116;-45
2023/09/08 10:30:04;;;;;;;3.88;1.40;;;;;;;17.05;60.70;99382.34;5030248;28;20044;-43
2023/09/08 10:32:32;;;;;;;5.10;1.23;;;;;;;17.09;61.36;99381.19;5053519;28;20508;-47
2023/09/08 10:35:00;;;;;;;3.60;1.20;;;;;;;17.35;61.29;99379.47;5071134;28;20040;-46
2023/09/08 10:37:29;;;;;;;4.07;1.92;;;;;;;17.98;60.45;99381.31;5065013;28;20071;-44
2023/09/08 10:40:20;;;;;;;2.75;1.10;;;;;;;19.57;57.79;99371.47;5054822;28;20040;-46
2023/09/08 10:42:46;;;;;;;4.15;1.42;;;;;;;19.82;56.36;99358.06;5054762;28;20073;-46
2023/09/08 10:45:17;;;;;;;2.47;1.08;;;;;;;20.06;55.76;99374.63;5074084;28;20420;-43
2023/09/08 10:47:46;;;;;;;3.78;1.13;;;;;;;21.05;53.51;99364.84;5068246;28;20036;-48
2023/09/08 10:50:17;;;;;;;2.05;1.25;;;;;;;22.54;49.68;99357.34;5070510;28;20060;-45
2023/09/08 10:52:43;;;;;;;3.08;1.20;;;;;;;24.51;44.66;99353.97;5073072;28;20040;-45
2023/09/08 10:55:09;;;;;;;1.55;1.08;;;;;;;23.47;44.91;99328.50;5059612;28;20633;-46
2023/09/08 10:57:35;;;;;;;3.35;1.55;;;;;;;22.22;45.92;99319.59;5075253;28;20044;-47
2023/09/08 11:00:14;;;;;;;3.97;1.70;;;;;;;21.35;47.47;99356.22;5071900;28;20051;-42
2023/09/08 11:02:49;;;;;;;2.05;1.25;;;;;;;20.52;48.53;99353.34;5077581;28;20040;-44
2023/09/08 11:05:18;;;;;;;3.08;1.00;;;;;;;19.90;49.25;99366.22;5073246;28;20137;-44
2023/09/08 11:07:45;;;;;;;2.15;1.42;;;;;;;19.44;50.39;99368.88;5039349;28;20046;-47
2023/09/08 11:10:12;;;;;;;4.55;1.08;;;;;;;18.96;51.93;99354.91;5074628;28;20093;-46
2023/09/08 11:12:38;;;;;;;7.22;1.80;;;;;;;18.76;53.55;99393.25;5075860;28;20521;-43
2023/09/08 11:15:07;;;;;;;2.25;1.00;;;;;;;18.33;55.08;99381.44;5079646;28;20048;-44
2023/09/08 11:17:34;;;;;;;3.60;1.33;;;;;;;17.92;56.65;99379.94;5070713;28;20488;-48
2023/09/08 11:20:07;;;;;;;6.25;1.20;;;;;;;17.65;58.98;99398.44;5064480;28;20040;-44
2023/09/08 11:22:34;;;;;;;5.28;1.10;;;;;;;17.37;60.63;99390.72;5067554;28;20093;-45
2023/09/08 11:25:03;;;;;;;6.28;3.30;;;;;;;17.21;61.63;99390.06;5059522;28;20032;-47
2023/09/08 11:27:31;;;;;;;2.85;1.00;;;;;;;17.19;62.00;99399.81;5069963;28;20041;-43
2023/09/08 11:29:57;;;;;;;3.38;0.90;;;;;;;17.11;62.29;99400.31;5047103;28;20036;-44
2023/09/08 11:32:24;;;;;;;2.45;1.27;;;;;;;17.01;62.43;99398.41;5064191;28;20131;-45